Time;durP1;ratioP1;P1;durP2;ratioP2;P2;SDS_P1;SDS_P2;PMS_P1;PMS_P2;Temp;Humidity;BMP_temperature;BMP_pressure;BME280_temperature;BME280_humidity;BME280_pressure;Samples;Min_cycle;Max_cycle;Signal;HPM_P1;HPM_P2
2023/01/04 00:01:42;;;;;;;5.43;1.00;;;8.80;99.90;;;;;;5028078;28;20041;-71
2023/01/04 00:04:08;;;;;;;4.53;0.88;;;8.80;99.90;;;;;;5028081;28;20025;-70
2023/01/04 00:06:34;;;;;;;7.72;1.27;;;8.80;99.90;;;;;;5029795;28;20365;-72
2023/01/04 00:08:59;;;;;;;6.13;1.02;;;8.80;99.90;;;;;;5028636;28;20033;-71
2023/01/04 00:11:26;;;;;;;6.60;0.70;;;8.80;99.90;;;;;;5029961;28;20044;-72
2023/01/04 00:13:56;;;;;;;1.92;0.52;;;8.70;99.90;;;;;;5027831;28;20099;-70
2023/01/04 00:16:23;;;;;;;7.77;1.00;;;8.80;99.90;;;;;;5028154;28;20041;-70
2023/01/04 00:18:51;;;;;;;3.00;0.90;;;8.80;99.90;;;;;;5029729;28;20030;-73
2023/01/04 00:21:26;;;;;;;2.55;0.77;;;8.80;99.90;;;;;;5025385;28;20029;-71
2023/01/04 00:23:53;;;;;;;2.95;0.90;;;8.80;99.90;;;;;;5021214;28;20679;-72
2023/01/04 00:26:22;;;;;;;1.75;0.77;;;8.80;99.90;;;;;;5030132;28;20038;-70
2023/01/04 00:28:51;;;;;;;4.88;0.90;;;8.80;99.90;;;;;;5029955;28;20409;-71
2023/01/04 00:31:17;;;;;;;2.72;0.75;;;8.80;99.90;;;;;;5026127;28;20087;-71
2023/01/04 00:33:43;;;;;;;3.60;1.08;;;8.80;99.90;;;;;;5028963;28;20026;-71
2023/01/04 00:36:11;;;;;;;5.88;1.00;;;8.90;99.90;;;;;;5029486;28;20684;-70
2023/01/04 00:38:37;;;;;;;5.82;1.40;;;8.80;99.90;;;;;;5030607;28;20060;-71
2023/01/04 00:41:03;;;;;;;5.45;1.55;;;8.90;99.90;;;;;;5029640;28;20038;-71
2023/01/04 00:43:29;;;;;;;3.47;1.38;;;8.90;99.90;;;;;;5029818;28;20064;-71
2023/01/04 00:45:55;;;;;;;4.30;1.63;;;8.90;99.90;;;;;;5028380;28;20049;-71
2023/01/04 00:48:21;;;;;;;8.07;2.15;;;8.90;99.90;;;;;;5027569;28;20072;-71
2023/01/04 00:50:47;;;;;;;10.27;2.95;;;8.90;99.90;;;;;;5027053;28;20040;-71
2023/01/04 00:53:15;;;;;;;9.52;4.70;;;8.90;99.90;;;;;;5024846;28;20401;-71
2023/01/04 00:55:41;;;;;;;8.70;5.03;;;8.90;99.90;;;;;;5027288;28;20029;-71
2023/01/04 00:58:06;;;;;;;8.45;5.13;;;8.90;99.90;;;;;;5027457;28;20028;-72
2023/01/04 01:00:32;;;;;;;14.38;7.75;;;9.00;99.90;;;;;;5029077;28;20482;-70
2023/01/04 01:02:58;;;;;;;15.73;6.55;;;9.00;99.90;;;;;;5025824;28;20094;-71
2023/01/04 01:05:24;;;;;;;10.07;5.43;;;9.00;99.90;;;;;;5027405;28;20037;-70
2023/01/04 01:07:50;;;;;;;11.82;5.35;;;9.00;99.90;;;;;;5027107;28;20021;-71
2023/01/04 01:10:15;;;;;;;10.50;5.20;;;9.00;99.90;;;;;;5029404;28;20095;-71
2023/01/04 01:12:41;;;;;;;11.00;5.28;;;9.00;99.90;;;;;;5027864;28;20037;-71
2023/01/04 01:15:07;;;;;;;13.15;4.63;;;9.00;99.90;;;;;;5027047;28;20037;-70
2023/01/04 01:17:33;;;;;;;8.82;3.47;;;9.10;99.90;;;;;;5029457;28;20498;-70
2023/01/04 01:19:59;;;;;;;7.85;3.63;;;9.10;99.90;;;;;;5028711;28;20048;-72
2023/01/04 01:22:25;;;;;;;7.53;2.75;;;9.10;99.90;;;;;;5029324;28;20033;-69
2023/01/04 01:24:50;;;;;;;4.43;1.70;;;9.20;99.90;;;;;;5029196;28;20049;-71
2023/01/04 01:27:16;;;;;;;2.97;1.30;;;9.20;99.90;;;;;;5029182;28;20034;-71
2023/01/04 01:29:42;;;;;;;2.92;1.00;;;9.20;99.90;;;;;;5028985;28;20035;-71
2023/01/04 01:32:07;;;;;;;3.65;0.95;;;9.20;99.90;;;;;;5026974;28;20124;-70
2023/01/04 01:34:33;;;;;;;1.55;1.13;;;9.20;99.90;;;;;;5027267;28;20449;-72
2023/01/04 01:36:59;;;;;;;5.32;1.00;;;9.30;99.90;;;;;;5029439;28;20048;-70
2023/01/04 01:39:24;;;;;;;2.35;1.10;;;9.30;99.90;;;;;;5029652;28;20030;-70
2023/01/04 01:41:50;;;;;;;2.28;1.05;;;9.30;99.90;;;;;;5027683;28;20099;-72
2023/01/04 01:44:40;;;;;;;2.80;1.65;;;9.30;99.90;;;;;;5028671;28;20037;-71
2023/01/04 01:47:17;;;;;;;4.32;1.23;;;9.30;99.90;;;;;;5028186;28;20056;-72
2023/01/04 01:49:45;;;;;;;4.88;1.40;;;9.30;99.90;;;;;;5024451;28;20095;-71
2023/01/04 01:52:17;;;;;;;2.25;1.00;;;9.40;99.90;;;;;;5023877;28;20045;-70
2023/01/04 01:54:46;;;;;;;2.25;1.50;;;9.40;99.90;;;;;;5023401;28;20037;-71
2023/01/04 01:57:16;;;;;;;3.22;1.70;;;9.40;99.90;;;;;;5025382;28;20092;-70
2023/01/04 01:59:44;;;;;;;2.33;1.55;;;9.40;99.90;;;;;;5025473;28;20056;-70
2023/01/04 02:02:10;;;;;;;3.85;1.80;;;9.50;99.90;;;;;;5028907;28;20124;-71
2023/01/04 02:04:39;;;;;;;4.25;1.73;;;9.50;99.90;;;;;;5028359;28;20100;-70
2023/01/04 02:07:05;;;;;;;5.00;1.60;;;9.50;99.90;;;;;;5028352;28;20911;-71
2023/01/04 02:09:32;;;;;;;6.35;1.73;;;9.50;99.90;;;;;;5026844;28;20120;-71
2023/01/04 02:11:57;;;;;;;2.75;2.08;;;9.60;99.90;;;;;;5025729;28;20057;-72
2023/01/04 02:14:26;;;;;;;3.05;1.90;;;9.60;99.90;;;;;;5026568;28;20052;-71
2023/01/04 02:17:21;;;;;;;3.80;1.60;;;9.60;99.90;;;;;;5026927;28;20076;-72
2023/01/04 02:19:49;;;;;;;5.38;1.80;;;9.70;99.90;;;;;;5024541;28;20131;-71
2023/01/04 02:22:40;;;;;;;3.75;1.90;;;9.70;99.90;;;;;;5027260;28;20473;-70
2023/01/04 02:25:11;;;;;;;4.72;1.63;;;9.70;99.90;;;;;;5025244;28;20040;-71
2023/01/04 02:27:40;;;;;;;2.83;1.60;;;9.70;99.90;;;;;;5025572;28;20072;-71
2023/01/04 02:30:28;;;;;;;3.15;1.98;;;9.80;99.90;;;;;;5027475;28;20654;-70
2023/01/04 02:33:31;;;;;;;4.32;1.88;;;9.80;99.90;;;;;;5026748;28;20052;-70
2023/01/04 02:36:22;;;;;;;9.40;3.08;;;9.80;99.90;;;;;;5022009;28;20520;-71
2023/01/04 02:39:17;;;;;;;6.32;2.22;;;9.80;99.90;;;;;;5028903;28;20051;-71
2023/01/04 02:41:50;;;;;;;5.35;2.20;;;9.80;99.90;;;;;;5029260;28;20033;-71
2023/01/04 02:47:16;;;;;;;3.55;1.83;;;10.00;99.90;;;;;;5028828;28;20040;-71
2023/01/04 02:52:26;;;;;;;4.95;2.25;;;10.10;99.90;;;;;;5032404;28;20040;-71
2023/01/04 02:54:55;;;;;;;6.35;1.90;;;10.20;99.90;;;;;;5031758;28;20033;-72
2023/01/04 02:57:42;;;;;;;4.85;1.98;;;10.10;99.90;;;;;;5030152;28;20448;-71
2023/01/04 03:00:10;;;;;;;2.78;1.52;;;10.10;99.90;;;;;;5029448;28;20520;-71
2023/01/04 03:06:15;;;;;;;3.55;1.67;;;10.20;99.90;;;;;;5028722;28;20076;-71
2023/01/04 03:09:05;;;;;;;3.10;2.10;;;10.30;99.90;;;;;;5027682;28;20041;-72
2023/01/04 03:14:39;;;;;;;2.55;1.60;;;10.30;99.90;;;;;;5030655;28;20033;-71
2023/01/04 03:17:09;;;;;;;4.80;1.67;;;10.30;99.90;;;;;;5026080;28;20524;-72
2023/01/04 03:19:55;;;;;;;1.70;1.48;;;10.30;99.90;;;;;;5025220;28;20037;-73
2023/01/04 03:37:03;;;;;;;3.75;1.40;;;10.40;99.90;;;;;;5026754;28;20129;-71
2023/01/04 03:48:31;;;;;;;1.48;1.30;;;10.50;99.90;;;;;;5028387;28;20475;-72
2023/01/04 03:51:14;;;;;;;1.38;1.05;;;10.50;99.90;;;;;;5028431;28;20773;-72
2023/01/04 03:53:44;;;;;;;1.27;1.10;;;10.50;99.90;;;;;;5026055;28;20353;-72
2023/01/04 03:56:10;;;;;;;;;;;10.50;99.90;;;;;;5028405;28;20041;-71
2023/01/04 03:58:37;;;;;;;1.38;0.80;;;10.60;99.90;;;;;;5028599;28;19996;-72
2023/01/04 04:01:03;;;;;;;1.65;1.17;;;10.60;99.90;;;;;;5025653;28;20033;-71
2023/01/04 04:08:59;;;;;;;1.20;0.70;;;10.60;99.90;;;;;;5029000;28;20056;-72
2023/01/04 04:11:31;;;;;;;3.78;1.30;;;10.70;99.90;;;;;;5027926;28;20068;-72
2023/01/04 04:13:58;;;;;;;3.85;0.90;;;10.70;99.90;;;;;;5028251;28;20033;-72
2023/01/04 04:16:25;;;;;;;1.75;0.90;;;10.70;99.90;;;;;;5029813;28;20111;-73
2023/01/04 04:18:50;;;;;;;6.43;1.25;;;10.80;99.90;;;;;;5029663;28;20030;-71
2023/01/04 04:21:16;;;;;;;1.55;0.90;;;10.70;99.90;;;;;;5029072;28;20025;-71
2023/01/04 04:23:42;;;;;;;1.58;0.82;;;10.80;99.90;;;;;;5028644;28;20494;-71
2023/01/04 04:26:08;;;;;;;5.55;1.05;;;10.80;99.90;;;;;;5029312;28;20037;-72
2023/01/04 04:28:34;;;;;;;3.00;1.20;;;10.80;99.90;;;;;;5028201;28;20505;-72
2023/01/04 04:30:59;;;;;;;2.97;1.10;;;10.80;99.90;;;;;;5027160;28;20033;-71
2023/01/04 04:33:25;;;;;;;2.63;1.13;;;10.90;99.90;;;;;;5027750;28;20563;-72
2023/01/04 04:35:52;;;;;;;1.58;0.80;;;10.90;99.90;;;;;;5027533;28;20038;-73
2023/01/04 04:38:18;;;;;;;5.53;0.85;;;10.90;99.90;;;;;;5028847;28;20041;-72
2023/01/04 04:43:29;;;;;;;2.58;1.17;;;11.00;99.90;;;;;;5028533;28;20067;-72
2023/01/04 04:45:54;;;;;;;3.03;1.20;;;10.90;99.90;;;;;;5028692;28;20076;-72
2023/01/04 04:48:20;;;;;;;1.75;1.38;;;10.90;99.90;;;;;;5027099;28;20036;-72
2023/01/04 04:50:46;;;;;;;3.20;1.10;;;11.00;99.90;;;;;;5028489;28;20571;-71
2023/01/04 04:53:11;;;;;;;5.13;0.95;;;10.90;99.90;;;;;;5028453;28;20489;-71
2023/01/04 04:55:37;;;;;;;3.63;1.45;;;10.90;99.90;;;;;;5025766;28;20049;-71
2023/01/04 04:58:02;;;;;;;2.40;1.10;;;10.90;99.90;;;;;;5028552;28;20037;-72
2023/01/04 05:00:28;;;;;;;1.52;1.00;;;10.80;99.90;;;;;;5028817;28;20402;-72
2023/01/04 05:02:57;;;;;;;4.68;1.13;;;10.80;99.90;;;;;;5027926;28;20037;-72
2023/01/04 05:05:23;;;;;;;1.75;1.02;;;10.90;99.90;;;;;;5028221;28;20044;-72
2023/01/04 05:07:48;;;;;;;3.55;1.35;;;10.90;99.90;;;;;;5026785;28;20037;-72
2023/01/04 05:10:14;;;;;;;2.03;1.20;;;10.80;99.90;;;;;;5028419;28;20447;-72
2023/01/04 05:12:58;;;;;;;3.15;1.30;;;10.80;99.90;;;;;;5027979;28;20045;-73
2023/01/04 05:15:29;;;;;;;1.83;1.35;;;10.90;99.90;;;;;;5028318;28;20033;-72
2023/01/04 05:17:54;;;;;;;;;;;10.80;99.90;;;;;;5027071;28;20049;-71
2023/01/04 05:20:20;;;;;;;1.92;1.13;;;10.80;99.90;;;;;;5028464;28;19917;-72
2023/01/04 05:22:45;;;;;;;4.28;1.90;;;10.80;99.90;;;;;;5035598;28;20454;-72
2023/01/04 05:25:11;;;;;;;2.47;1.33;;;10.90;99.90;;;;;;5031456;28;20041;-73
2023/01/04 05:27:37;;;;;;;2.97;1.80;;;10.80;99.90;;;;;;5027975;28;20045;-72
2023/01/04 05:32:49;;;;;;;3.65;2.33;;;10.80;99.90;;;;;;5027104;28;20168;-72
2023/01/04 05:35:14;;;;;;;7.22;3.03;;;10.80;99.90;;;;;;5028351;28;20112;-72
2023/01/04 05:37:41;;;;;;;4.97;2.50;;;10.80;99.90;;;;;;5028482;28;20420;-72
2023/01/04 05:40:07;;;;;;;5.45;2.92;;;10.80;99.90;;;;;;5028137;28;20034;-72
2023/01/04 05:42:33;;;;;;;4.25;2.58;;;10.80;99.90;;;;;;5028377;28;20216;-71
2023/01/04 05:44:58;;;;;;;6.22;2.70;;;10.80;99.90;;;;;;5026327;28;20665;-70
2023/01/04 05:47:25;;;;;;;3.80;2.65;;;10.90;99.90;;;;;;5028142;28;20045;-71
2023/01/04 05:49:51;;;;;;;4.40;2.17;;;10.80;99.90;;;;;;5026571;28;20045;-72
2023/01/04 05:52:18;;;;;;;2.95;2.45;;;10.80;99.90;;;;;;5027541;28;20026;-72
2023/01/04 05:54:43;;;;;;;5.60;2.13;;;10.80;99.90;;;;;;5025671;28;20052;-71
2023/01/04 05:57:10;;;;;;;3.78;2.03;;;10.90;99.90;;;;;;5027549;28;20033;-72
2023/01/04 05:59:35;;;;;;;2.50;1.65;;;10.90;99.90;;;;;;5026120;28;20080;-71
2023/01/04 06:02:01;;;;;;;3.03;2.30;;;11.00;99.90;;;;;;5025535;28;20056;-71
2023/01/04 06:04:27;;;;;;;2.88;1.90;;;10.90;99.90;;;;;;5026208;28;20033;-72
2023/01/04 06:06:52;;;;;;;3.03;1.60;;;10.90;99.90;;;;;;5026673;28;20108;-72
2023/01/04 06:09:18;;;;;;;3.20;1.63;;;11.00;99.90;;;;;;5025786;28;20041;-71
2023/01/04 06:11:43;;;;;;;3.45;2.08;;;10.90;99.90;;;;;;5027236;28;20406;-72
2023/01/04 06:14:09;;;;;;;3.17;1.90;;;10.90;99.90;;;;;;5026840;28;20029;-72
2023/01/04 06:16:35;;;;;;;2.72;1.88;;;11.00;99.90;;;;;;5024034;28;20080;-72
2023/01/04 06:19:01;;;;;;;3.38;2.00;;;10.90;99.90;;;;;;5027283;28;20041;-72
2023/01/04 06:21:27;;;;;;;2.80;2.03;;;11.00;99.90;;;;;;5027624;28;20037;-71
2023/01/04 06:23:52;;;;;;;3.60;2.20;;;10.90;99.90;;;;;;5028126;28;20087;-72
2023/01/04 06:26:18;;;;;;;3.90;2.25;;;10.90;99.90;;;;;;5025075;28;20041;-71
2023/01/04 06:28:44;;;;;;;3.58;2.15;;;11.00;99.90;;;;;;5026492;28;20091;-72
2023/01/04 06:31:10;;;;;;;5.53;1.95;;;11.00;99.90;;;;;;5027719;28;20040;-71
2023/01/04 06:33:36;;;;;;;3.25;2.28;;;11.00;99.90;;;;;;5024189;28;20095;-72
2023/01/04 06:36:03;;;;;;;3.72;1.95;;;11.00;99.90;;;;;;5026889;28;20041;-71
2023/01/04 06:38:29;;;;;;;5.13;2.13;;;11.00;99.90;;;;;;5022931;28;20017;-72
2023/01/04 06:40:55;;;;;;;3.33;1.75;;;11.10;99.90;;;;;;5026260;28;20044;-72
2023/01/04 06:43:21;;;;;;;4.35;1.63;;;11.10;99.90;;;;;;5026525;28;20052;-70
2023/01/04 06:45:46;;;;;;;4.28;1.73;;;11.10;99.90;;;;;;5026814;28;20064;-71
2023/01/04 06:48:12;;;;;;;3.65;1.55;;;11.10;99.90;;;;;;5024138;28;20036;-70
2023/01/04 06:50:37;;;;;;;4.80;1.40;;;11.10;99.90;;;;;;5021214;28;20490;-70
2023/01/04 06:53:03;;;;;;;5.88;1.40;;;11.10;99.90;;;;;;5025052;28;20040;-73
2023/01/04 06:55:29;;;;;;;3.72;1.55;;;11.10;99.90;;;;;;5024944;28;20117;-72
2023/01/04 06:57:55;;;;;;;6.60;1.65;;;11.10;99.90;;;;;;5023814;28;20048;-71
2023/01/04 07:00:21;;;;;;;5.53;1.83;;;11.00;99.90;;;;;;5023765;28;20557;-72
2023/01/04 07:02:47;;;;;;;4.25;2.03;;;11.10;99.90;;;;;;5024792;28;20136;-72
2023/01/04 07:05:12;;;;;;;6.88;1.20;;;11.10;99.90;;;;;;5024833;28;20068;-72
2023/01/04 07:07:38;;;;;;;2.55;1.20;;;11.10;99.90;;;;;;5024662;28;20037;-72
2023/01/04 07:10:04;;;;;;;2.55;0.63;;;11.10;99.90;;;;;;5023240;28;20041;-72
2023/01/04 07:12:30;;;;;;;8.27;1.27;;;11.10;99.90;;;;;;5024938;28;20061;-72
2023/01/04 07:14:56;;;;;;;5.18;1.40;;;11.10;99.90;;;;;;5023782;28;20065;-72
2023/01/04 07:17:21;;;;;;;3.45;1.02;;;11.10;99.90;;;;;;5025089;28;20084;-73
2023/01/04 07:19:47;;;;;;;5.28;1.40;;;11.10;99.90;;;;;;5028688;28;20116;-72
2023/01/04 07:22:13;;;;;;;3.80;1.23;;;11.10;99.90;;;;;;5026001;28;20029;-73
2023/01/04 07:24:38;;;;;;;6.93;1.20;;;11.20;99.90;;;;;;5028496;28;20040;-72
2023/01/04 07:27:04;;;;;;;3.60;1.00;;;11.10;99.90;;;;;;5028727;28;20041;-72
2023/01/04 07:29:30;;;;;;;5.70;1.60;;;11.10;99.90;;;;;;5026883;28;20030;-72
2023/01/04 07:31:55;;;;;;;6.97;1.35;;;11.20;99.90;;;;;;5027247;28;20667;-72
2023/01/04 07:34:24;;;;;;;3.47;1.50;;;11.10;99.90;;;;;;5026244;28;20735;-69
2023/01/04 07:36:50;;;;;;;7.03;1.85;;;11.10;99.90;;;;;;5026435;28;20084;-73
2023/01/04 07:39:17;;;;;;;7.45;1.45;;;11.20;99.90;;;;;;5026800;28;20028;-71
2023/01/04 07:41:43;;;;;;;4.68;1.40;;;11.20;99.90;;;;;;5027187;28;20037;-71
2023/01/04 07:44:10;;;;;;;2.80;0.90;;;11.10;99.90;;;;;;5026155;28;20038;-69
2023/01/04 07:46:37;;;;;;;4.20;1.52;;;11.10;99.90;;;;;;5026166;28;20052;-70
2023/01/04 07:49:04;;;;;;;5.57;0.93;;;11.10;99.90;;;;;;5030081;28;20383;-69
2023/01/04 07:51:31;;;;;;;2.38;1.20;;;11.20;99.90;;;;;;5028690;28;20057;-70
2023/01/04 07:53:57;;;;;;;6.40;0.82;;;11.20;99.90;;;;;;5024561;28;20029;-71
2023/01/04 07:56:22;;;;;;;1.90;0.85;;;11.10;99.90;;;;;;5028416;28;20041;-72
2023/01/04 07:58:48;;;;;;;3.85;0.95;;;11.10;99.90;;;;;;5028088;28;20033;-72
2023/01/04 08:01:17;;;;;;;6.28;1.75;;;11.10;99.90;;;;;;5029631;28;20042;-71
2023/01/04 08:03:44;;;;;;;2.10;0.90;;;11.10;99.90;;;;;;5027682;28;20057;-72
2023/01/04 08:06:13;;;;;;;10.73;1.10;;;11.20;99.90;;;;;;5028212;28;20034;-71
2023/01/04 08:08:39;;;;;;;6.47;0.90;;;11.10;99.90;;;;;;5027267;28;20061;-70
2023/01/04 08:11:16;;;;;;;2.25;0.70;;;11.20;99.90;;;;;;5026013;28;20025;-72
2023/01/04 08:13:42;;;;;;;3.42;1.00;;;11.10;99.90;;;;;;5027527;28;20136;-71
2023/01/04 08:16:21;;;;;;;1.35;0.70;;;11.20;99.90;;;;;;5030294;28;20038;-72
2023/01/04 08:18:47;;;;;;;5.28;1.00;;;11.20;99.90;;;;;;5030390;28;20814;-72
2023/01/04 08:21:13;;;;;;;4.63;1.10;;;11.20;99.90;;;;;;5027747;28;20083;-71
2023/01/04 08:23:39;;;;;;;1.13;0.50;;;11.20;99.90;;;;;;5027525;28;20033;-71
2023/01/04 08:26:07;;;;;;;1.73;0.63;;;11.20;99.90;;;;;;5024148;28;20231;-72
2023/01/04 08:28:33;;;;;;;1.45;0.65;;;11.30;99.90;;;;;;5027515;28;20037;-72
2023/01/04 08:31:04;;;;;;;7.70;0.70;;;11.20;99.90;;;;;;5025745;28;20037;-72
2023/01/04 08:33:30;;;;;;;2.53;0.75;;;11.30;99.90;;;;;;5027242;28;20098;-72
2023/01/04 08:36:16;;;;;;;1.38;0.65;;;11.30;99.90;;;;;;5026804;28;20041;-72
2023/01/04 08:38:41;;;;;;;1.58;0.63;;;11.30;99.90;;;;;;5026265;28;20037;-72
2023/01/04 08:41:07;;;;;;;1.17;0.60;;;11.30;99.90;;;;;;5026733;28;20063;-69
2023/01/04 08:43:34;;;;;;;2.67;1.00;;;11.30;99.90;;;;;;5027406;28;20112;-72
2023/01/04 08:46:04;;;;;;;0.80;0.57;;;11.30;99.90;;;;;;5026725;28;20045;-72
2023/01/04 08:48:31;;;;;;;1.60;0.57;;;11.30;99.90;;;;;;5025863;28;20029;-72
2023/01/04 08:51:01;;;;;;;2.05;0.52;;;11.30;99.90;;;;;;5026113;28;20025;-73
2023/01/04 08:53:27;;;;;;;1.52;0.70;;;11.30;99.90;;;;;;5025236;28;20041;-70
2023/01/04 08:55:53;;;;;;;1.13;0.52;;;11.40;99.90;;;;;;5026266;28;20030;-70
2023/01/04 08:58:20;;;;;;;2.25;0.40;;;11.40;99.90;;;;;;5026812;28;20077;-72
2023/01/04 09:00:46;;;;;;;1.20;0.50;;;11.30;99.90;;;;;;5021648;28;20501;-71
2023/01/04 09:03:12;;;;;;;2.20;0.57;;;11.30;99.90;;;;;;5025571;28;20060;-72
2023/01/04 09:05:37;;;;;;;0.57;0.35;;;11.40;99.90;;;;;;5025937;28;20033;-69
2023/01/04 09:08:03;;;;;;;3.10;0.52;;;11.30;99.90;;;;;;5025153;28;20041;-71
2023/01/04 09:10:29;;;;;;;2.78;0.43;;;11.40;99.90;;;;;;5026801;28;20109;-71
2023/01/04 09:12:55;;;;;;;5.10;0.70;;;11.40;99.90;;;;;;5025052;28;20075;-72
2023/01/04 09:15:20;;;;;;;2.13;0.45;;;11.40;99.90;;;;;;5030122;28;20025;-73
2023/01/04 09:17:48;;;;;;;1.85;0.68;;;11.40;99.90;;;;;;5025097;28;20060;-72
2023/01/04 09:20:14;;;;;;;3.70;0.93;;;11.40;99.90;;;;;;5024690;28;20033;-71
2023/01/04 09:22:40;;;;;;;4.18;0.70;;;11.40;99.90;;;;;;5026353;28;20486;-72
2023/01/04 09:25:06;;;;;;;3.42;0.93;;;11.50;99.90;;;;;;5026130;28;20036;-71
2023/01/04 09:27:32;;;;;;;3.70;0.65;;;11.40;99.90;;;;;;5024593;28;20034;-72
2023/01/04 09:29:58;;;;;;;2.35;1.00;;;11.50;99.90;;;;;;5026087;28;20132;-72
2023/01/04 09:32:24;;;;;;;6.63;1.67;;;11.50;99.90;;;;;;5025601;28;20069;-70
2023/01/04 09:34:50;;;;;;;3.85;0.60;;;11.50;99.90;;;;;;5026168;28;20119;-73
2023/01/04 09:37:15;;;;;;;2.08;0.60;;;11.60;99.90;;;;;;5026139;28;20045;-72
2023/01/04 09:39:41;;;;;;;1.55;0.50;;;11.60;99.90;;;;;;5025885;28;20037;-72
2023/01/04 09:42:19;;;;;;;4.28;1.00;;;11.60;99.90;;;;;;5025927;28;20862;-72
2023/01/04 09:44:49;;;;;;;3.83;0.57;;;11.60;99.90;;;;;;5022593;28;20037;-72
2023/01/04 09:47:29;;;;;;;1.47;0.70;;;11.60;99.90;;;;;;5021663;28;20029;-72
2023/01/04 09:50:15;;;;;;;4.50;0.60;;;11.60;99.90;;;;;;5025842;28;20284;-71
2023/01/04 09:52:53;;;;;;;2.75;0.50;;;11.60;99.90;;;;;;5025335;28;20026;-73
2023/01/04 09:55:24;;;;;;;6.28;1.10;;;11.60;99.90;;;;;;5024576;28;20568;-71
2023/01/04 09:58:02;;;;;;;2.85;0.60;;;11.70;99.90;;;;;;5024233;28;20571;-72
2023/01/04 10:00:33;;;;;;;5.90;0.73;;;11.70;99.90;;;;;;5025845;28;20124;-72
2023/01/04 10:03:27;;;;;;;3.85;0.75;;;11.70;99.90;;;;;;5024521;28;20030;-72
2023/01/04 10:05:54;;;;;;;3.53;0.63;;;11.70;99.90;;;;;;5024036;28;20040;-72
2023/01/04 10:08:20;;;;;;;4.43;0.73;;;11.70;99.90;;;;;;5026860;28;20029;-73
2023/01/04 10:11:07;;;;;;;2.90;0.80;;;11.70;99.90;;;;;;5025414;28;20128;-71
2023/01/04 10:13:48;;;;;;;2.92;0.55;;;11.70;99.90;;;;;;5025591;28;20104;-72
2023/01/04 10:16:44;;;;;;;4.78;0.55;;;11.70;99.90;;;;;;5023854;28;20513;-72
2023/01/04 10:19:17;;;;;;;5.07;0.73;;;11.80;99.90;;;;;;5023770;28;20041;-69
2023/01/04 10:21:58;;;;;;;4.80;1.02;;;11.80;99.90;;;;;;5024108;28;20030;-72
2023/01/04 10:24:24;;;;;;;3.10;0.60;;;11.70;99.90;;;;;;5023921;28;20056;-72
2023/01/04 10:26:54;;;;;;;8.50;1.27;;;11.70;99.90;;;;;;5025069;28;20060;-72
2023/01/04 10:29:41;;;;;;;8.15;1.40;;;11.80;99.90;;;;;;5026127;28;20095;-71
2023/01/04 10:32:16;;;;;;;4.10;0.77;;;11.80;99.90;;;;;;5024957;28;20448;-73
2023/01/04 10:34:44;;;;;;;5.28;1.02;;;11.80;99.90;;;;;;5023326;28;20033;-71
2023/01/04 10:37:20;;;;;;;7.25;1.05;;;11.80;99.90;;;;;;5023435;28;20051;-71
2023/01/04 10:39:51;;;;;;;10.27;1.40;;;11.80;99.90;;;;;;5024647;28;20095;-72
2023/01/04 10:42:37;;;;;;;5.55;0.90;;;11.80;99.90;;;;;;5022836;28;20460;-73
2023/01/04 10:45:39;;;;;;;10.20;1.30;;;11.80;99.90;;;;;;5022804;28;20098;-73
2023/01/04 10:48:19;;;;;;;4.35;0.90;;;11.80;99.90;;;;;;5025213;28;20037;-73
2023/01/04 10:51:01;;;;;;;8.00;0.90;;;11.80;99.90;;;;;;5023500;28;20041;-72
2023/01/04 10:53:26;;;;;;;7.72;0.88;;;11.80;99.90;;;;;;5024346;28;20068;-72
2023/01/04 10:55:59;;;;;;;8.00;0.77;;;11.80;99.90;;;;;;5029532;28;20065;-72
2023/01/04 10:58:33;;;;;;;9.98;1.15;;;11.80;99.90;;;;;;5029560;28;20029;-73
2023/01/04 11:01:05;;;;;;;4.05;0.65;;;11.80;99.90;;;;;;5029549;28;20393;-72
2023/01/04 11:03:38;;;;;;;10.77;1.48;;;11.80;99.90;;;;;;5028725;28;20220;-73
2023/01/04 11:06:07;;;;;;;5.85;1.15;;;11.90;99.90;;;;;;5027296;28;20029;-73
2023/01/04 11:08:41;;;;;;;8.73;1.83;;;11.90;99.90;;;;;;5029672;28;20506;-72
2023/01/04 11:11:16;;;;;;;4.93;1.17;;;11.80;99.90;;;;;;5028301;28;20036;-74
2023/01/04 11:13:41;;;;;;;4.45;1.42;;;11.90;99.90;;;;;;5028049;28;20037;-73
2023/01/04 11:16:07;;;;;;;11.65;1.20;;;11.80;99.90;;;;;;5026387;28;20038;-73
2023/01/04 11:18:36;;;;;;;6.13;1.10;;;11.90;99.90;;;;;;5028946;28;20037;-73
2023/01/04 11:21:07;;;;;;;8.50;1.42;;;11.90;99.90;;;;;;5026962;28;20413;-72
2023/01/04 11:23:32;;;;;;;8.82;0.90;;;11.90;99.90;;;;;;5027844;28;20033;-74
2023/01/04 11:26:03;;;;;;;4.18;0.90;;;11.90;99.90;;;;;;5027937;28;20228;-72
2023/01/04 11:28:34;;;;;;;4.35;1.52;;;12.00;99.90;;;;;;5034501;28;20030;-72
2023/01/04 11:31:18;;;;;;;5.25;0.90;;;12.00;99.90;;;;;;5026827;28;20045;-73
2023/01/04 11:34:10;;;;;;;6.78;1.25;;;12.00;99.90;;;;;;5027619;28;20113;-73
2023/01/04 11:36:41;;;;;;;2.85;0.95;;;12.00;99.90;;;;;;5023848;28;20133;-73
2023/01/04 11:39:21;;;;;;;4.40;0.70;;;12.10;99.90;;;;;;5025465;28;20038;-72
2023/01/04 11:41:56;;;;;;;9.25;1.70;;;12.10;99.90;;;;;;5027421;28;20037;-73
2023/01/04 11:44:22;;;;;;;3.85;0.60;;;12.10;99.90;;;;;;5026339;28;20120;-72
2023/01/04 11:47:09;;;;;;;5.70;0.70;;;12.20;99.90;;;;;;5027752;28;20052;-73
2023/01/04 11:49:35;;;;;;;5.15;0.52;;;12.20;99.90;;;;;;5027273;28;20045;-73
2023/01/04 11:52:03;;;;;;;6.97;0.75;;;12.20;99.90;;;;;;5026242;28;20033;-72
2023/01/04 11:54:28;;;;;;;7.30;0.80;;;12.20;99.90;;;;;;5027220;28;20041;-73
2023/01/04 11:57:09;;;;;;;5.10;0.90;;;12.30;99.90;;;;;;5028199;28;20045;-71
2023/01/04 11:59:35;;;;;;;6.00;0.82;;;12.30;99.90;;;;;;5026666;28;20037;-74
2023/01/04 12:02:19;;;;;;;3.55;0.75;;;12.30;99.90;;;;;;5024169;28;20389;-73
2023/01/04 12:04:44;;;;;;;4.47;0.75;;;12.30;99.90;;;;;;5024656;28;20099;-72
2023/01/04 12:07:25;;;;;;;4.40;0.60;;;12.40;99.90;;;;;;5024992;28;20030;-72
2023/01/04 12:09:51;;;;;;;;;;;12.40;99.90;;;;;;5024179;28;20128;-72
2023/01/04 12:12:16;;;;;;;11.52;1.00;;;12.40;99.90;;;;;;5024523;28;20012;-73
2023/01/04 12:14:47;;;;;;;6.03;0.70;;;12.50;99.90;;;;;;5025572;28;20111;-72
2023/01/04 12:17:21;;;;;;;6.10;0.70;;;12.50;99.90;;;;;;5027006;28;20044;-73
2023/01/04 12:19:49;;;;;;;9.55;1.63;;;12.50;99.90;;;;;;5024727;28;20056;-72
2023/01/04 12:22:33;;;;;;;9.93;1.17;;;12.60;99.90;;;;;;5025449;28;20048;-71
2023/01/04 12:25:01;;;;;;;10.02;1.30;;;12.60;99.90;;;;;;5025980;28;20061;-72
2023/01/04 12:27:27;;;;;;;5.20;0.95;;;12.70;99.90;;;;;;5027777;28;20081;-75
2023/01/04 12:29:59;;;;;;;5.60;1.08;;;12.70;99.90;;;;;;5028253;28;20026;-72
2023/01/04 12:32:24;;;;;;;5.30;1.13;;;12.70;99.90;;;;;;5026205;28;20037;-72
2023/01/04 12:34:50;;;;;;;3.95;0.75;;;12.70;99.90;;;;;;5027385;28;20821;-73
2023/01/04 12:37:44;;;;;;;10.52;0.77;;;12.60;99.90;;;;;;5027114;28;20034;-71
2023/01/04 12:40:44;;;;;;;9.27;1.00;;;12.70;99.90;;;;;;5020168;28;20029;-73
2023/01/04 12:43:16;;;;;;;6.93;0.77;;;12.70;99.90;;;;;;5026104;28;20061;-72
2023/01/04 12:45:42;;;;;;;4.40;0.75;;;12.60;99.90;;;;;;5025564;28;20072;-73
2023/01/04 12:51:19;;;;;;;6.93;0.73;;;12.60;99.90;;;;;;5026527;28;20040;-72
2023/01/04 12:54:04;;;;;;;6.72;0.98;;;12.60;99.90;;;;;;5026159;28;20138;-71
2023/01/04 12:57:07;;;;;;;10.52;1.15;;;12.60;99.90;;;;;;5026095;28;20108;-74
2023/01/04 12:59:38;;;;;;;5.18;1.38;;;12.60;99.90;;;;;;5023351;28;20041;-73
2023/01/04 13:02:17;;;;;;;;;;;12.50;99.90;;;;;;5025576;28;20053;-72
2023/01/04 13:04:43;;;;;;;9.07;0.80;;;12.60;99.90;;;;;;5026492;28;20603;-72
2023/01/04 13:07:25;;;;;;;12.57;1.80;;;12.60;99.90;;;;;;5024032;28;20109;-72
2023/01/04 13:10:05;;;;;;;8.85;1.05;;;12.60;99.90;;;;;;5025154;28;20099;-73
2023/01/04 13:12:45;;;;;;;8.38;2.08;;;12.60;99.90;;;;;;5024134;28;20034;-72
2023/01/04 13:15:31;;;;;;;7.68;1.60;;;12.60;99.90;;;;;;5025327;28;20045;-72
2023/01/04 13:17:57;;;;;;;6.70;0.95;;;12.60;99.90;;;;;;5024722;28;20046;-72
2023/01/04 13:20:24;;;;;;;9.20;0.82;;;12.50;99.90;;;;;;5024803;28;20033;-74
2023/01/04 13:22:56;;;;;;;7.72;1.38;;;12.60;99.90;;;;;;5025192;28;20041;-72
2023/01/04 13:25:23;;;;;;;7.88;1.02;;;12.60;99.90;;;;;;5022228;28;20041;-73
2023/01/04 13:28:03;;;;;;;7.93;1.00;;;12.60;99.90;;;;;;5025717;28;20045;-73
2023/01/04 13:30:35;;;;;;;5.28;1.13;;;12.60;99.90;;;;;;5023582;28;20041;-71
2023/01/04 13:33:09;;;;;;;8.48;1.50;;;12.50;99.90;;;;;;5022777;28;20076;-72
2023/01/04 13:35:35;;;;;;;10.70;1.50;;;12.50;99.90;;;;;;5024442;28;20038;-73
2023/01/04 13:38:00;;;;;;;13.80;1.13;;;12.50;99.90;;;;;;5026692;28;20796;-73
2023/01/04 13:40:34;;;;;;;7.60;1.10;;;12.40;99.90;;;;;;5026512;28;20021;-73
2023/01/04 13:43:18;;;;;;;13.95;1.58;;;12.40;99.90;;;;;;5023836;28;20034;-72
2023/01/04 13:46:14;;;;;;;10.38;0.98;;;12.50;99.90;;;;;;5024555;28;20041;-72
2023/01/04 13:48:46;;;;;;;7.10;1.67;;;12.50;99.90;;;;;;5026483;28;20578;-71
2023/01/04 13:51:33;;;;;;;5.40;0.85;;;12.50;99.90;;;;;;5024525;28;20057;-72
2023/01/04 13:54:01;;;;;;;10.10;1.55;;;12.40;99.90;;;;;;5021992;28;20509;-73
2023/01/04 13:56:30;;;;;;;9.40;0.98;;;12.50;99.90;;;;;;5027005;28;20127;-74